sensor_id;sensor_type;location;lat;lon;timestamp;temperature;humidity
57218;DHT22;43078;52.972;6.482;2023-06-26T00:02:16;27.00;63.60
57218;DHT22;43078;52.972;6.482;2023-06-26T00:04:43;26.90;63.40
57218;DHT22;43078;52.972;6.482;2023-06-26T00:07:09;26.80;63.30
57218;DHT22;43078;52.972;6.482;2023-06-26T00:09:35;26.70;63.10
57218;DHT22;43078;52.972;6.482;2023-06-26T00:12:01;26.70;63.40
57218;DHT22;43078;52.972;6.482;2023-06-26T00:14:26;26.60;63.60
57218;DHT22;43078;52.972;6.482;2023-06-26T00:16:52;26.60;63.20
57218;DHT22;43078;52.972;6.482;2023-06-26T00:19:18;26.50;63.60
57218;DHT22;43078;52.972;6.482;2023-06-26T00:21:44;26.40;63.60
57218;DHT22;43078;52.972;6.482;2023-06-26T00:24:14;26.40;64.00
57218;DHT22;43078;52.972;6.482;2023-06-26T00:26:40;26.30;63.90
57218;DHT22;43078;52.972;6.482;2023-06-26T00:29:05;26.30;64.10
57218;DHT22;43078;52.972;6.482;2023-06-26T00:31:31;26.20;64.30
57218;DHT22;43078;52.972;6.482;2023-06-26T00:33:56;26.20;64.30
57218;DHT22;43078;52.972;6.482;2023-06-26T00:36:22;26.10;64.30
57218;DHT22;43078;52.972;6.482;2023-06-26T00:38:51;26.00;64.60
57218;DHT22;43078;52.972;6.482;2023-06-26T00:41:17;26.00;64.90
57218;DHT22;43078;52.972;6.482;2023-06-26T00:43:43;25.90;64.60
57218;DHT22;43078;52.972;6.482;2023-06-26T00:46:10;25.90;64.20
57218;DHT22;43078;52.972;6.482;2023-06-26T00:48:38;25.90;64.90
57218;DHT22;43078;52.972;6.482;2023-06-26T00:51:04;25.80;64.70
57218;DHT22;43078;52.972;6.482;2023-06-26T00:53:31;25.80;64.80
57218;DHT22;43078;52.972;6.482;2023-06-26T00:55:56;25.70;64.80
57218;DHT22;43078;52.972;6.482;2023-06-26T00:58:24;25.70;65.40
57218;DHT22;43078;52.972;6.482;2023-06-26T01:00:51;25.70;65.90
57218;DHT22;43078;52.972;6.482;2023-06-26T01:03:17;25.70;66.10
57218;DHT22;43078;52.972;6.482;2023-06-26T01:05:42;25.70;66.30
57218;DHT22;43078;52.972;6.482;2023-06-26T01:08:12;25.60;66.30
57218;DHT22;43078;52.972;6.482;2023-06-26T01:10:39;25.60;66.40
57218;DHT22;43078;52.972;6.482;2023-06-26T01:13:05;25.60;66.60
57218;DHT22;43078;52.972;6.482;2023-06-26T01:15:31;25.60;66.70
57218;DHT22;43078;52.972;6.482;2023-06-26T01:17:57;25.60;66.70
57218;DHT22;43078;52.972;6.482;2023-06-26T01:20:31;25.60;66.60
57218;DHT22;43078;52.972;6.482;2023-06-26T01:28:18;25.50;66.80
57218;DHT22;43078;52.972;6.482;2023-06-26T01:30:45;25.50;66.80
57218;DHT22;43078;52.972;6.482;2023-06-26T01:33:12;25.50;66.90
57218;DHT22;43078;52.972;6.482;2023-06-26T01:35:39;25.50;67.10
57218;DHT22;43078;52.972;6.482;2023-06-26T01:38:19;25.40;67.00
57218;DHT22;43078;52.972;6.482;2023-06-26T01:40:46;25.40;66.70
57218;DHT22;43078;52.972;6.482;2023-06-26T01:43:47;25.30;67.10
57218;DHT22;43078;52.972;6.482;2023-06-26T01:46:31;25.30;66.70
57218;DHT22;43078;52.972;6.482;2023-06-26T01:49:15;25.20;67.00
57218;DHT22;43078;52.972;6.482;2023-06-26T01:51:55;25.10;66.60
57218;DHT22;43078;52.972;6.482;2023-06-26T01:54:24;25.10;67.70
57218;DHT22;43078;52.972;6.482;2023-06-26T01:56:52;25.10;67.70
57218;DHT22;43078;52.972;6.482;2023-06-26T01:59:20;25.10;67.90
57218;DHT22;43078;52.972;6.482;2023-06-26T02:01:47;25.10;67.90
57218;DHT22;43078;52.972;6.482;2023-06-26T02:04:13;25.10;68.00
57218;DHT22;43078;52.972;6.482;2023-06-26T02:06:39;25.00;67.90
57218;DHT22;43078;52.972;6.482;2023-06-26T02:09:04;25.00;68.00
57218;DHT22;43078;52.972;6.482;2023-06-26T02:11:30;25.00;68.10
57218;DHT22;43078;52.972;6.482;2023-06-26T02:13:56;24.90;68.30
57218;DHT22;43078;52.972;6.482;2023-06-26T02:16:21;24.90;68.40
57218;DHT22;43078;52.972;6.482;2023-06-26T02:18:47;24.90;68.50
57218;DHT22;43078;52.972;6.482;2023-06-26T02:21:13;24.90;68.60
57218;DHT22;43078;52.972;6.482;2023-06-26T02:23:39;24.90;68.70
57218;DHT22;43078;52.972;6.482;2023-06-26T02:26:04;24.80;68.60
57218;DHT22;43078;52.972;6.482;2023-06-26T02:28:30;24.80;68.50
57218;DHT22;43078;52.972;6.482;2023-06-26T02:30:56;24.70;68.40
57218;DHT22;43078;52.972;6.482;2023-06-26T02:33:22;24.70;68.50
57218;DHT22;43078;52.972;6.482;2023-06-26T02:35:48;24.70;68.50
57218;DHT22;43078;52.972;6.482;2023-06-26T02:38:15;24.60;70.30
57218;DHT22;43078;52.972;6.482;2023-06-26T02:40:41;24.60;69.60
57218;DHT22;43078;52.972;6.482;2023-06-26T02:43:06;24.50;70.00
57218;DHT22;43078;52.972;6.482;2023-06-26T02:45:32;24.50;69.40
57218;DHT22;43078;52.972;6.482;2023-06-26T02:47:58;24.40;70.10
57218;DHT22;43078;52.972;6.482;2023-06-26T02:50:23;24.40;70.00
57218;DHT22;43078;52.972;6.482;2023-06-26T02:52:49;24.30;70.80
57218;DHT22;43078;52.972;6.482;2023-06-26T02:55:18;24.30;70.70
57218;DHT22;43078;52.972;6.482;2023-06-26T02:57:44;24.20;70.20
57218;DHT22;43078;52.972;6.482;2023-06-26T03:00:11;24.20;70.30
57218;DHT22;43078;52.972;6.482;2023-06-26T03:02:37;24.10;69.70
57218;DHT22;43078;52.972;6.482;2023-06-26T03:05:02;24.10;70.90
57218;DHT22;43078;52.972;6.482;2023-06-26T03:07:29;24.00;70.60
57218;DHT22;43078;52.972;6.482;2023-06-26T03:09:55;24.00;70.80
57218;DHT22;43078;52.972;6.482;2023-06-26T03:12:21;24.00;70.70
57218;DHT22;43078;52.972;6.482;2023-06-26T03:14:47;23.90;70.60
57218;DHT22;43078;52.972;6.482;2023-06-26T03:17:12;23.90;71.20
57218;DHT22;43078;52.972;6.482;2023-06-26T03:19:38;23.80;71.90
57218;DHT22;43078;52.972;6.482;2023-06-26T03:22:04;23.80;72.80
57218;DHT22;43078;52.972;6.482;2023-06-26T03:24:29;23.80;72.80
57218;DHT22;43078;52.972;6.482;2023-06-26T03:26:55;23.80;72.30
57218;DHT22;43078;52.972;6.482;2023-06-26T03:29:21;23.70;72.70
57218;DHT22;43078;52.972;6.482;2023-06-26T03:31:46;23.70;73.30
57218;DHT22;43078;52.972;6.482;2023-06-26T03:34:12;23.60;75.70
57218;DHT22;43078;52.972;6.482;2023-06-26T03:36:38;23.60;74.90
57218;DHT22;43078;52.972;6.482;2023-06-26T03:39:04;23.50;76.20
57218;DHT22;43078;52.972;6.482;2023-06-26T03:41:30;23.50;76.00
57218;DHT22;43078;52.972;6.482;2023-06-26T03:43:55;23.40;76.70
57218;DHT22;43078;52.972;6.482;2023-06-26T03:46:22;23.40;76.80
57218;DHT22;43078;52.972;6.482;2023-06-26T03:48:48;23.40;75.70
57218;DHT22;43078;52.972;6.482;2023-06-26T03:51:14;23.30;77.20
57218;DHT22;43078;52.972;6.482;2023-06-26T03:53:40;23.30;79.70
57218;DHT22;43078;52.972;6.482;2023-06-26T03:56:06;23.30;78.60
57218;DHT22;43078;52.972;6.482;2023-06-26T03:58:31;23.20;77.60
57218;DHT22;43078;52.972;6.482;2023-06-26T04:00:57;23.30;76.60
57218;DHT22;43078;52.972;6.482;2023-06-26T04:03:24;23.20;75.90
57218;DHT22;43078;52.972;6.482;2023-06-26T04:05:49;23.20;75.50
57218;DHT22;43078;52.972;6.482;2023-06-26T04:08:15;23.20;78.40
57218;DHT22;43078;52.972;6.482;2023-06-26T04:10:41;23.20;76.80
57218;DHT22;43078;52.972;6.482;2023-06-26T04:13:06;23.20;75.80
57218;DHT22;43078;52.972;6.482;2023-06-26T04:15:32;23.20;75.40
57218;DHT22;43078;52.972;6.482;2023-06-26T04:17:58;23.20;75.50
57218;DHT22;43078;52.972;6.482;2023-06-26T04:20:23;23.20;75.60
57218;DHT22;43078;52.972;6.482;2023-06-26T04:22:49;23.10;77.00
57218;DHT22;43078;52.972;6.482;2023-06-26T04:25:15;23.20;78.50
57218;DHT22;43078;52.972;6.482;2023-06-26T04:27:40;23.10;77.30
57218;DHT22;43078;52.972;6.482;2023-06-26T04:30:07;23.10;77.70
57218;DHT22;43078;52.972;6.482;2023-06-26T04:32:33;23.10;78.00
57218;DHT22;43078;52.972;6.482;2023-06-26T04:34:58;23.10;79.40
57218;DHT22;43078;52.972;6.482;2023-06-26T04:37:24;23.10;81.60
57218;DHT22;43078;52.972;6.482;2023-06-26T04:39:50;23.10;81.50
57218;DHT22;43078;52.972;6.482;2023-06-26T04:42:16;23.00;82.50
57218;DHT22;43078;52.972;6.482;2023-06-26T04:44:41;23.00;82.70
57218;DHT22;43078;52.972;6.482;2023-06-26T04:47:10;22.90;83.40
57218;DHT22;43078;52.972;6.482;2023-06-26T04:49:36;22.90;84.40
57218;DHT22;43078;52.972;6.482;2023-06-26T04:52:02;22.90;85.70
57218;DHT22;43078;52.972;6.482;2023-06-26T04:54:28;22.80;84.60
57218;DHT22;43078;52.972;6.482;2023-06-26T04:56:54;22.80;86.80
57218;DHT22;43078;52.972;6.482;2023-06-26T04:59:19;22.80;88.00
57218;DHT22;43078;52.972;6.482;2023-06-26T05:01:45;22.70;88.00
57218;DHT22;43078;52.972;6.482;2023-06-26T05:04:14;22.70;88.90
57218;DHT22;43078;52.972;6.482;2023-06-26T05:06:43;22.60;87.10
57218;DHT22;43078;52.972;6.482;2023-06-26T05:09:08;22.60;87.60
57218;DHT22;43078;52.972;6.482;2023-06-26T05:11:35;22.60;87.60
57218;DHT22;43078;52.972;6.482;2023-06-26T05:14:01;22.60;88.20
57218;DHT22;43078;52.972;6.482;2023-06-26T05:16:27;22.50;89.60
57218;DHT22;43078;52.972;6.482;2023-06-26T05:18:52;22.40;89.00
57218;DHT22;43078;52.972;6.482;2023-06-26T05:21:19;22.40;90.00
57218;DHT22;43078;52.972;6.482;2023-06-26T05:23:46;22.40;90.40
57218;DHT22;43078;52.972;6.482;2023-06-26T05:26:13;22.40;89.90
57218;DHT22;43078;52.972;6.482;2023-06-26T05:28:39;22.40;90.40
57218;DHT22;43078;52.972;6.482;2023-06-26T05:31:05;22.30;90.60
57218;DHT22;43078;52.972;6.482;2023-06-26T05:33:31;22.30;90.50
57218;DHT22;43078;52.972;6.482;2023-06-26T05:35:59;22.30;90.30
57218;DHT22;43078;52.972;6.482;2023-06-26T05:38:25;22.20;90.60
57218;DHT22;43078;52.972;6.482;2023-06-26T05:40:51;22.20;90.50
57218;DHT22;43078;52.972;6.482;2023-06-26T05:43:17;22.10;90.90
57218;DHT22;43078;52.972;6.482;2023-06-26T05:45:48;22.10;90.20
57218;DHT22;43078;52.972;6.482;2023-06-26T05:48:14;22.10;90.90
57218;DHT22;43078;52.972;6.482;2023-06-26T05:50:40;22.10;90.30
57218;DHT22;43078;52.972;6.482;2023-06-26T05:53:08;22.10;90.10
57218;DHT22;43078;52.972;6.482;2023-06-26T05:55:33;22.10;90.60
57218;DHT22;43078;52.972;6.482;2023-06-26T05:57:59;22.10;90.30
57218;DHT22;43078;52.972;6.482;2023-06-26T06:00:27;22.10;90.90
57218;DHT22;43078;52.972;6.482;2023-06-26T06:02:53;22.10;90.40
57218;DHT22;43078;52.972;6.482;2023-06-26T06:05:22;22.20;90.50
57218;DHT22;43078;52.972;6.482;2023-06-26T06:07:49;22.10;89.90
57218;DHT22;43078;52.972;6.482;2023-06-26T06:10:15;22.10;89.50
57218;DHT22;43078;52.972;6.482;2023-06-26T06:12:40;22.10;88.50
57218;DHT22;43078;52.972;6.482;2023-06-26T06:15:06;22.20;89.10
57218;DHT22;43078;52.972;6.482;2023-06-26T06:17:32;22.20;88.80
57218;DHT22;43078;52.972;6.482;2023-06-26T06:19:58;22.10;89.50
57218;DHT22;43078;52.972;6.482;2023-06-26T06:22:23;22.10;88.60
57218;DHT22;43078;52.972;6.482;2023-06-26T06:24:50;22.10;88.60
57218;DHT22;43078;52.972;6.482;2023-06-26T06:27:16;22.00;88.00
57218;DHT22;43078;52.972;6.482;2023-06-26T06:29:42;22.00;88.40
57218;DHT22;43078;52.972;6.482;2023-06-26T06:32:08;22.00;89.00
57218;DHT22;43078;52.972;6.482;2023-06-26T06:34:33;22.00;88.20
57218;DHT22;43078;52.972;6.482;2023-06-26T06:36:59;22.00;88.30
57218;DHT22;43078;52.972;6.482;2023-06-26T06:39:24;22.00;87.90
57218;DHT22;43078;52.972;6.482;2023-06-26T06:41:50;22.10;88.30
57218;DHT22;43078;52.972;6.482;2023-06-26T06:44:16;22.10;87.70
57218;DHT22;43078;52.972;6.482;2023-06-26T06:46:41;22.20;87.60
57218;DHT22;43078;52.972;6.482;2023-06-26T06:49:08;22.20;87.70
57218;DHT22;43078;52.972;6.482;2023-06-26T06:51:34;22.20;86.80
57218;DHT22;43078;52.972;6.482;2023-06-26T06:53:59;22.30;86.30
57218;DHT22;43078;52.972;6.482;2023-06-26T06:56:25;22.30;86.40
57218;DHT22;43078;52.972;6.482;2023-06-26T06:58:50;22.30;86.80
57218;DHT22;43078;52.972;6.482;2023-06-26T07:01:16;22.30;86.40
57218;DHT22;43078;52.972;6.482;2023-06-26T07:03:42;22.30;86.30
57218;DHT22;43078;52.972;6.482;2023-06-26T07:06:08;22.40;86.10
57218;DHT22;43078;52.972;6.482;2023-06-26T07:08:33;22.50;85.90
57218;DHT22;43078;52.972;6.482;2023-06-26T07:10:59;22.50;85.70
57218;DHT22;43078;52.972;6.482;2023-06-26T07:13:25;22.50;85.40
57218;DHT22;43078;52.972;6.482;2023-06-26T07:15:51;22.60;85.50
57218;DHT22;43078;52.972;6.482;2023-06-26T07:18:17;22.70;85.30
57218;DHT22;43078;52.972;6.482;2023-06-26T07:20:42;22.70;84.10
57218;DHT22;43078;52.972;6.482;2023-06-26T07:23:08;22.80;83.30
57218;DHT22;43078;52.972;6.482;2023-06-26T07:25:34;22.70;82.60
57218;DHT22;43078;52.972;6.482;2023-06-26T07:28:00;22.80;82.30
57218;DHT22;43078;52.972;6.482;2023-06-26T07:30:26;22.80;82.70
57218;DHT22;43078;52.972;6.482;2023-06-26T07:32:51;22.80;82.40
57218;DHT22;43078;52.972;6.482;2023-06-26T07:35:17;22.80;82.70
57218;DHT22;43078;52.972;6.482;2023-06-26T07:37:43;22.90;82.20
57218;DHT22;43078;52.972;6.482;2023-06-26T07:40:09;23.00;82.20
57218;DHT22;43078;52.972;6.482;2023-06-26T07:42:35;23.00;81.90
57218;DHT22;43078;52.972;6.482;2023-06-26T07:45:01;23.10;81.90
57218;DHT22;43078;52.972;6.482;2023-06-26T07:47:27;23.20;81.40
57218;DHT22;43078;52.972;6.482;2023-06-26T07:49:53;23.20;81.30
57218;DHT22;43078;52.972;6.482;2023-06-26T07:52:19;23.30;80.90
57218;DHT22;43078;52.972;6.482;2023-06-26T07:54:45;23.40;80.30
57218;DHT22;43078;52.972;6.482;2023-06-26T07:57:11;23.50;80.50
57218;DHT22;43078;52.972;6.482;2023-06-26T07:59:38;23.50;80.70
57218;DHT22;43078;52.972;6.482;2023-06-26T08:02:04;23.60;80.10
57218;DHT22;43078;52.972;6.482;2023-06-26T08:04:31;23.60;80.00
57218;DHT22;43078;52.972;6.482;2023-06-26T08:06:58;23.70;79.40
57218;DHT22;43078;52.972;6.482;2023-06-26T08:09:26;23.70;78.70
57218;DHT22;43078;52.972;6.482;2023-06-26T08:11:52;23.70;78.50
57218;DHT22;43078;52.972;6.482;2023-06-26T08:14:18;23.80;78.60
57218;DHT22;43078;52.972;6.482;2023-06-26T08:16:44;23.80;78.80
57218;DHT22;43078;52.972;6.482;2023-06-26T08:19:11;23.90;79.30
57218;DHT22;43078;52.972;6.482;2023-06-26T08:21:36;23.90;79.40
57218;DHT22;43078;52.972;6.482;2023-06-26T08:24:02;24.00;79.40
57218;DHT22;43078;52.972;6.482;2023-06-26T08:26:28;24.10;79.20
57218;DHT22;43078;52.972;6.482;2023-06-26T08:28:54;24.10;79.00
57218;DHT22;43078;52.972;6.482;2023-06-26T08:31:19;24.10;78.70
57218;DHT22;43078;52.972;6.482;2023-06-26T08:33:46;24.20;78.30
57218;DHT22;43078;52.972;6.482;2023-06-26T08:36:12;24.30;77.60
57218;DHT22;43078;52.972;6.482;2023-06-26T08:38:37;24.20;77.10
57218;DHT22;43078;52.972;6.482;2023-06-26T08:41:06;24.20;76.90
57218;DHT22;43078;52.972;6.482;2023-06-26T08:43:32;24.20;77.40
57218;DHT22;43078;52.972;6.482;2023-06-26T08:45:59;24.20;77.60
57218;DHT22;43078;52.972;6.482;2023-06-26T08:48:25;24.20;77.90
57218;DHT22;43078;52.972;6.482;2023-06-26T08:50:53;24.30;77.40
57218;DHT22;43078;52.972;6.482;2023-06-26T08:56:08;24.30;77.20
57218;DHT22;43078;52.972;6.482;2023-06-26T08:58:35;24.30;78.50
57218;DHT22;43078;52.972;6.482;2023-06-26T09:01:04;24.30;78.70
57218;DHT22;43078;52.972;6.482;2023-06-26T09:03:31;24.30;78.40
57218;DHT22;43078;52.972;6.482;2023-06-26T09:05:56;24.30;78.30
57218;DHT22;43078;52.972;6.482;2023-06-26T09:08:22;24.30;77.70
57218;DHT22;43078;52.972;6.482;2023-06-26T09:10:48;24.40;77.70
57218;DHT22;43078;52.972;6.482;2023-06-26T09:13:14;24.40;76.10
57218;DHT22;43078;52.972;6.482;2023-06-26T09:15:43;24.40;77.00
57218;DHT22;43078;52.972;6.482;2023-06-26T09:18:09;24.50;77.00
57218;DHT22;43078;52.972;6.482;2023-06-26T09:20:35;24.50;76.50
57218;DHT22;43078;52.972;6.482;2023-06-26T09:23:01;24.50;76.40
57218;DHT22;43078;52.972;6.482;2023-06-26T09:25:28;24.60;76.30
57218;DHT22;43078;52.972;6.482;2023-06-26T09:27:54;24.60;75.10
57218;DHT22;43078;52.972;6.482;2023-06-26T09:30:20;24.60;76.00
57218;DHT22;43078;52.972;6.482;2023-06-26T09:32:46;24.60;74.50
57218;DHT22;43078;52.972;6.482;2023-06-26T09:35:12;24.60;76.90
57218;DHT22;43078;52.972;6.482;2023-06-26T09:37:40;24.70;75.10
57218;DHT22;43078;52.972;6.482;2023-06-26T09:40:06;24.70;75.90
57218;DHT22;43078;52.972;6.482;2023-06-26T09:42:32;24.80;75.20
57218;DHT22;43078;52.972;6.482;2023-06-26T09:44:58;24.90;76.20
57218;DHT22;43078;52.972;6.482;2023-06-26T09:47:24;24.90;75.00
57218;DHT22;43078;52.972;6.482;2023-06-26T09:49:50;24.90;73.70
57218;DHT22;43078;52.972;6.482;2023-06-26T09:52:18;24.90;73.30
57218;DHT22;43078;52.972;6.482;2023-06-26T09:54:45;24.90;73.00
57218;DHT22;43078;52.972;6.482;2023-06-26T09:57:13;24.90;71.80
57218;DHT22;43078;52.972;6.482;2023-06-26T09:59:42;24.90;71.00
57218;DHT22;43078;52.972;6.482;2023-06-26T10:02:08;24.90;73.00
57218;DHT22;43078;52.972;6.482;2023-06-26T10:04:36;25.00;72.50
57218;DHT22;43078;52.972;6.482;2023-06-26T10:07:04;25.00;72.00
57218;DHT22;43078;52.972;6.482;2023-06-26T10:09:30;25.10;73.20
57218;DHT22;43078;52.972;6.482;2023-06-26T10:14:33;25.10;73.10
57218;DHT22;43078;52.972;6.482;2023-06-26T10:17:01;25.10;73.20
57218;DHT22;43078;52.972;6.482;2023-06-26T10:19:30;25.10;72.50
57218;DHT22;43078;52.972;6.482;2023-06-26T10:22:01;25.20;69.60
57218;DHT22;43078;52.972;6.482;2023-06-26T10:24:29;25.20;67.20
57218;DHT22;43078;52.972;6.482;2023-06-26T10:27:06;25.10;68.90
57218;DHT22;43078;52.972;6.482;2023-06-26T10:29:35;25.10;68.90
57218;DHT22;43078;52.972;6.482;2023-06-26T10:32:02;25.10;69.50
57218;DHT22;43078;52.972;6.482;2023-06-26T10:34:30;25.10;66.40
57218;DHT22;43078;52.972;6.482;2023-06-26T10:36:59;25.20;67.40
57218;DHT22;43078;52.972;6.482;2023-06-26T10:39:26;25.20;64.50
57218;DHT22;43078;52.972;6.482;2023-06-26T10:41:54;25.30;66.20
57218;DHT22;43078;52.972;6.482;2023-06-26T10:44:20;25.30;62.20
57218;DHT22;43078;52.972;6.482;2023-06-26T10:46:50;25.30;64.50
57218;DHT22;43078;52.972;6.482;2023-06-26T10:49:18;25.30;64.00
57218;DHT22;43078;52.972;6.482;2023-06-26T10:51:49;25.30;64.10
57218;DHT22;43078;52.972;6.482;2023-06-26T10:54:19;25.40;65.60
57218;DHT22;43078;52.972;6.482;2023-06-26T10:56:54;25.40;64.70
57218;DHT22;43078;52.972;6.482;2023-06-26T10:59:29;25.40;66.60
57218;DHT22;43078;52.972;6.482;2023-06-26T11:02:05;25.40;66.50
57218;DHT22;43078;52.972;6.482;2023-06-26T11:04:44;25.40;66.40
57218;DHT22;43078;52.972;6.482;2023-06-26T11:07:21;25.50;64.50
57218;DHT22;43078;52.972;6.482;2023-06-26T11:12:45;25.40;65.60
57218;DHT22;43078;52.972;6.482;2023-06-26T11:15:18;25.50;65.50
57218;DHT22;43078;52.972;6.482;2023-06-26T11:17:45;25.50;65.10
57218;DHT22;43078;52.972;6.482;2023-06-26T11:20:12;25.60;66.80
57218;DHT22;43078;52.972;6.482;2023-06-26T11:22:40;25.60;65.00
57218;DHT22;43078;52.972;6.482;2023-06-26T11:25:06;25.70;63.90
57218;DHT22;43078;52.972;6.482;2023-06-26T11:27:41;25.70;66.50
57218;DHT22;43078;52.972;6.482;2023-06-26T11:30:09;25.60;63.70
57218;DHT22;43078;52.972;6.482;2023-06-26T11:32:39;25.60;63.00
57218;DHT22;43078;52.972;6.482;2023-06-26T11:35:05;25.60;66.20
57218;DHT22;43078;52.972;6.482;2023-06-26T11:37:32;25.60;64.60
57218;DHT22;43078;52.972;6.482;2023-06-26T11:39:58;25.60;65.20
57218;DHT22;43078;52.972;6.482;2023-06-26T11:42:23;25.70;63.50
57218;DHT22;43078;52.972;6.482;2023-06-26T11:44:51;25.70;62.80
57218;DHT22;43078;52.972;6.482;2023-06-26T11:47:19;25.70;60.80
57218;DHT22;43078;52.972;6.482;2023-06-26T11:49:46;25.60;59.90
57218;DHT22;43078;52.972;6.482;2023-06-26T11:52:13;25.50;59.70
57218;DHT22;43078;52.972;6.482;2023-06-26T11:54:39;25.40;59.40
57218;DHT22;43078;52.972;6.482;2023-06-26T11:57:05;25.40;59.90
57218;DHT22;43078;52.972;6.482;2023-06-26T11:59:35;25.30;60.80
57218;DHT22;43078;52.972;6.482;2023-06-26T12:02:05;25.20;60.30
57218;DHT22;43078;52.972;6.482;2023-06-26T12:04:32;25.20;60.00
57218;DHT22;43078;52.972;6.482;2023-06-26T12:06:59;25.20;59.90
57218;DHT22;43078;52.972;6.482;2023-06-26T12:09:25;25.20;61.80
57218;DHT22;43078;52.972;6.482;2023-06-26T12:11:56;25.20;60.20
57218;DHT22;43078;52.972;6.482;2023-06-26T12:14:23;25.20;60.20
57218;DHT22;43078;52.972;6.482;2023-06-26T12:16:51;25.10;59.50
57218;DHT22;43078;52.972;6.482;2023-06-26T12:19:17;25.20;61.70
57218;DHT22;43078;52.972;6.482;2023-06-26T12:21:49;25.20;64.10
57218;DHT22;43078;52.972;6.482;2023-06-26T12:24:21;25.30;62.90
57218;DHT22;43078;52.972;6.482;2023-06-26T12:26:54;25.40;61.80
57218;DHT22;43078;52.972;6.482;2023-06-26T12:29:30;25.40;59.00
57218;DHT22;43078;52.972;6.482;2023-06-26T12:31:58;25.40;58.40
57218;DHT22;43078;52.972;6.482;2023-06-26T12:34:34;25.40;60.10
57218;DHT22;43078;52.972;6.482;2023-06-26T12:37:04;25.40;61.30
57218;DHT22;43078;52.972;6.482;2023-06-26T12:39:45;25.50;59.70
57218;DHT22;43078;52.972;6.482;2023-06-26T12:42:26;25.50;59.90
57218;DHT22;43078;52.972;6.482;2023-06-26T12:44:52;25.60;60.30
57218;DHT22;43078;52.972;6.482;2023-06-26T12:47:24;25.60;60.60
57218;DHT22;43078;52.972;6.482;2023-06-26T12:49:51;25.60;61.20
57218;DHT22;43078;52.972;6.482;2023-06-26T12:52:17;25.50;60.80
57218;DHT22;43078;52.972;6.482;2023-06-26T12:54:47;25.60;59.10
57218;DHT22;43078;52.972;6.482;2023-06-26T12:57:16;25.60;59.40
57218;DHT22;43078;52.972;6.482;2023-06-26T12:59:42;25.60;59.90
57218;DHT22;43078;52.972;6.482;2023-06-26T13:02:08;25.50;59.70
57218;DHT22;43078;52.972;6.482;2023-06-26T13:04:34;25.50;59.60
57218;DHT22;43078;52.972;6.482;2023-06-26T13:07:00;25.50;61.10
57218;DHT22;43078;52.972;6.482;2023-06-26T13:09:26;25.50;59.80
57218;DHT22;43078;52.972;6.482;2023-06-26T13:11:54;25.50;60.00
57218;DHT22;43078;52.972;6.482;2023-06-26T13:14:20;25.50;59.10
57218;DHT22;43078;52.972;6.482;2023-06-26T13:16:47;25.50;60.20
57218;DHT22;43078;52.972;6.482;2023-06-26T13:19:12;25.50;62.00
57218;DHT22;43078;52.972;6.482;2023-06-26T13:21:38;25.40;59.70
57218;DHT22;43078;52.972;6.482;2023-06-26T13:24:05;25.40;59.50
57218;DHT22;43078;52.972;6.482;2023-06-26T13:26:31;25.40;62.20
57218;DHT22;43078;52.972;6.482;2023-06-26T13:28:57;25.40;61.50
57218;DHT22;43078;52.972;6.482;2023-06-26T13:31:23;25.30;61.60
57218;DHT22;43078;52.972;6.482;2023-06-26T13:33:48;25.30;61.00
57218;DHT22;43078;52.972;6.482;2023-06-26T13:36:15;25.30;61.70
57218;DHT22;43078;52.972;6.482;2023-06-26T13:38:41;25.20;61.70
57218;DHT22;43078;52.972;6.482;2023-06-26T13:41:07;25.20;63.60
57218;DHT22;43078;52.972;6.482;2023-06-26T13:43:32;25.30;63.20
57218;DHT22;43078;52.972;6.482;2023-06-26T13:45:58;25.40;62.10
57218;DHT22;43078;52.972;6.482;2023-06-26T13:48:24;25.40;61.20
57218;DHT22;43078;52.972;6.482;2023-06-26T13:50:50;25.40;62.30
57218;DHT22;43078;52.972;6.482;2023-06-26T13:53:16;25.30;62.60
57218;DHT22;43078;52.972;6.482;2023-06-26T13:55:42;25.40;63.10
57218;DHT22;43078;52.972;6.482;2023-06-26T13:58:08;25.40;61.40
57218;DHT22;43078;52.972;6.482;2023-06-26T14:00:35;25.40;59.60
57218;DHT22;43078;52.972;6.482;2023-06-26T14:03:02;25.40;60.60
57218;DHT22;43078;52.972;6.482;2023-06-26T14:05:35;25.40;63.00
57218;DHT22;43078;52.972;6.482;2023-06-26T14:08:07;25.40;60.90
57218;DHT22;43078;52.972;6.482;2023-06-26T14:10:33;25.40;59.00
57218;DHT22;43078;52.972;6.482;2023-06-26T14:13:03;25.40;58.90
57218;DHT22;43078;52.972;6.482;2023-06-26T14:15:29;25.30;60.00
57218;DHT22;43078;52.972;6.482;2023-06-26T14:17:55;25.30;59.30
57218;DHT22;43078;52.972;6.482;2023-06-26T14:20:24;25.30;59.60
57218;DHT22;43078;52.972;6.482;2023-06-26T14:22:50;25.30;62.20
57218;DHT22;43078;52.972;6.482;2023-06-26T14:25:16;25.30;62.00
57218;DHT22;43078;52.972;6.482;2023-06-26T14:27:42;25.40;62.10
57218;DHT22;43078;52.972;6.482;2023-06-26T14:30:08;25.40;59.80
57218;DHT22;43078;52.972;6.482;2023-06-26T14:32:35;25.40;60.60
57218;DHT22;43078;52.972;6.482;2023-06-26T14:35:01;25.40;58.70
57218;DHT22;43078;52.972;6.482;2023-06-26T14:37:29;25.30;61.70
57218;DHT22;43078;52.972;6.482;2023-06-26T14:39:55;25.40;61.60
57218;DHT22;43078;52.972;6.482;2023-06-26T14:42:21;25.40;62.60
57218;DHT22;43078;52.972;6.482;2023-06-26T14:44:46;25.30;60.80
57218;DHT22;43078;52.972;6.482;2023-06-26T14:47:19;25.30;61.60
57218;DHT22;43078;52.972;6.482;2023-06-26T14:49:45;25.30;61.70
57218;DHT22;43078;52.972;6.482;2023-06-26T14:52:11;25.30;60.10
57218;DHT22;43078;52.972;6.482;2023-06-26T14:54:36;25.30;59.60
57218;DHT22;43078;52.972;6.482;2023-06-26T14:57:03;25.40;58.10
57218;DHT22;43078;52.972;6.482;2023-06-26T14:59:29;25.30;58.60
57218;DHT22;43078;52.972;6.482;2023-06-26T15:01:55;25.30;58.50
57218;DHT22;43078;52.972;6.482;2023-06-26T15:04:20;25.30;58.80
57218;DHT22;43078;52.972;6.482;2023-06-26T15:06:46;25.20;60.00
57218;DHT22;43078;52.972;6.482;2023-06-26T15:09:12;25.20;61.70
57218;DHT22;43078;52.972;6.482;2023-06-26T15:11:37;25.30;60.80
57218;DHT22;43078;52.972;6.482;2023-06-26T15:14:03;25.30;60.30
57218;DHT22;43078;52.972;6.482;2023-06-26T15:16:28;25.30;62.50
57218;DHT22;43078;52.972;6.482;2023-06-26T15:18:56;25.40;59.20
57218;DHT22;43078;52.972;6.482;2023-06-26T15:21:22;25.40;59.30
57218;DHT22;43078;52.972;6.482;2023-06-26T15:23:49;25.30;58.80
57218;DHT22;43078;52.972;6.482;2023-06-26T15:26:15;25.20;59.60
57218;DHT22;43078;52.972;6.482;2023-06-26T15:28:40;25.20;61.10
57218;DHT22;43078;52.972;6.482;2023-06-26T15:31:08;25.10;60.40
57218;DHT22;43078;52.972;6.482;2023-06-26T15:33:34;25.00;60.10
57218;DHT22;43078;52.972;6.482;2023-06-26T15:36:00;24.90;60.90
57218;DHT22;43078;52.972;6.482;2023-06-26T15:38:29;25.00;64.20
57218;DHT22;43078;52.972;6.482;2023-06-26T15:40:54;25.00;61.80
57218;DHT22;43078;52.972;6.482;2023-06-26T15:43:20;25.00;60.50